sensor_id;sensor_type;location;lat;lon;timestamp;pressure;altitude;pressure_sealevel;temperature;humidity
4085;BME280;2057;50.858;6.572;2024-02-28T00:01:16;100757.94;;;2.99;100.00
4085;BME280;2057;50.858;6.572;2024-02-28T00:03:41;100758.19;;;3.02;100.00
4085;BME280;2057;50.858;6.572;2024-02-28T00:06:07;100750.16;;;3.06;100.00
4085;BME280;2057;50.858;6.572;2024-02-28T00:08:32;100749.16;;;3.04;100.00
4085;BME280;2057;50.858;6.572;2024-02-28T00:10:57;100752.16;;;3.00;100.00
4085;BME280;2057;50.858;6.572;2024-02-28T00:13:25;100755.41;;;3.09;100.00
4085;BME280;2057;50.858;6.572;2024-02-28T00:15:50;100762.09;;;3.29;100.00
4085;BME280;2057;50.858;6.572;2024-02-28T00:18:16;100764.09;;;3.23;100.00
4085;BME280;2057;50.858;6.572;2024-02-28T00:20:44;100766.50;;;3.22;100.00
4085;BME280;2057;50.858;6.572;2024-02-28T00:23:15;100762.09;;;3.29;100.00
4085;BME280;2057;50.858;6.572;2024-02-28T00:25:40;100764.47;;;3.18;100.00
4085;BME280;2057;50.858;6.572;2024-02-28T00:28:06;100757.69;;;3.17;100.00
4085;BME280;2057;50.858;6.572;2024-02-28T00:30:31;100755.94;;;3.26;100.00
4085;BME280;2057;50.858;6.572;2024-02-28T00:32:57;100756.81;;;3.16;100.00
4085;BME280;2057;50.858;6.572;2024-02-28T00:35:23;100760.19;;;3.17;100.00
4085;BME280;2057;50.858;6.572;2024-02-28T00:37:48;100766.97;;;3.07;100.00
4085;BME280;2057;50.858;6.572;2024-02-28T00:40:13;100771.47;;;3.11;100.00
4085;BME280;2057;50.858;6.572;2024-02-28T00:42:39;100775.47;;;3.09;100.00
4085;BME280;2057;50.858;6.572;2024-02-28T00:45:04;100773.25;;;3.12;100.00
4085;BME280;2057;50.858;6.572;2024-02-28T00:47:30;100777.88;;;3.08;100.00
4085;BME280;2057;50.858;6.572;2024-02-28T00:49:55;100772.72;;;3.17;100.00
4085;BME280;2057;50.858;6.572;2024-02-28T00:52:23;100778.53;;;3.16;100.00
4085;BME280;2057;50.858;6.572;2024-02-28T00:54:50;100772.00;;;3.07;100.00
4085;BME280;2057;50.858;6.572;2024-02-28T00:57:15;100772.50;;;3.13;100.00
4085;BME280;2057;50.858;6.572;2024-02-28T00:59:43;100769.47;;;3.18;100.00
4085;BME280;2057;50.858;6.572;2024-02-28T01:02:09;100768.19;;;3.02;100.00
4085;BME280;2057;50.858;6.572;2024-02-28T01:04:35;100766.06;;;2.96;100.00
4085;BME280;2057;50.858;6.572;2024-02-28T01:07:00;100750.97;;;2.86;100.00
4085;BME280;2057;50.858;6.572;2024-02-28T01:09:26;100755.91;;;2.95;100.00
4085;BME280;2057;50.858;6.572;2024-02-28T01:11:51;100754.91;;;2.93;100.00
4085;BME280;2057;50.858;6.572;2024-02-28T01:14:16;100754.47;;;2.78;100.00
4085;BME280;2057;50.858;6.572;2024-02-28T01:16:42;100766.38;;;2.70;100.00
4085;BME280;2057;50.858;6.572;2024-02-28T01:19:07;100752.88;;;2.78;100.00
4085;BME280;2057;50.858;6.572;2024-02-28T01:21:32;100745.94;;;2.65;100.00
4085;BME280;2057;50.858;6.572;2024-02-28T01:23:58;100752.94;;;2.59;100.00
4085;BME280;2057;50.858;6.572;2024-02-28T01:26:23;100756.50;;;2.42;100.00
4085;BME280;2057;50.858;6.572;2024-02-28T01:28:49;100761.97;;;2.28;100.00
4085;BME280;2057;50.858;6.572;2024-02-28T01:31:14;100765.66;;;2.42;100.00
4085;BME280;2057;50.858;6.572;2024-02-28T01:33:40;100772.44;;;2.43;100.00
4085;BME280;2057;50.858;6.572;2024-02-28T01:36:08;100767.22;;;2.31;100.00
4085;BME280;2057;50.858;6.572;2024-02-28T01:38:34;100768.66;;;2.18;100.00
4085;BME280;2057;50.858;6.572;2024-02-28T01:40:59;100762.78;;;1.99;100.00
4085;BME280;2057;50.858;6.572;2024-02-28T01:43:25;100769.84;;;2.03;100.00
4085;BME280;2057;50.858;6.572;2024-02-28T01:45:50;100768.31;;;2.05;100.00
4085;BME280;2057;50.858;6.572;2024-02-28T01:48:16;100762.50;;;1.96;100.00
4085;BME280;2057;50.858;6.572;2024-02-28T01:50:41;100770.84;;;2.05;100.00
4085;BME280;2057;50.858;6.572;2024-02-28T01:53:08;100773.72;;;1.99;100.00
4085;BME280;2057;50.858;6.572;2024-02-28T01:55:35;100775.72;;;2.03;100.00
4085;BME280;2057;50.858;6.572;2024-02-28T01:58:01;100773.09;;;2.02;100.00
4085;BME280;2057;50.858;6.572;2024-02-28T02:13:23;100761.16;;;1.42;100.00
4085;BME280;2057;50.858;6.572;2024-02-28T02:15:48;100770.53;;;1.25;100.00
4085;BME280;2057;50.858;6.572;2024-02-28T02:18:14;100774.22;;;1.20;100.00
4085;BME280;2057;50.858;6.572;2024-02-28T02:20:44;100773.66;;;1.14;100.00
4085;BME280;2057;50.858;6.572;2024-02-28T02:23:14;100760.22;;;1.22;100.00
4085;BME280;2057;50.858;6.572;2024-02-28T02:25:46;100766.78;;;1.03;100.00
4085;BME280;2057;50.858;6.572;2024-02-28T02:28:12;100762.94;;;1.06;100.00
4085;BME280;2057;50.858;6.572;2024-02-28T02:30:38;100764.28;;;1.03;100.00
4085;BME280;2057;50.858;6.572;2024-02-28T02:33:03;100761.66;;;1.01;100.00
4085;BME280;2057;50.858;6.572;2024-02-28T02:35:29;100762.63;;;1.12;100.00
4085;BME280;2057;50.858;6.572;2024-02-28T02:37:54;100761.06;;;1.04;100.00
4085;BME280;2057;50.858;6.572;2024-02-28T02:40:22;100760.44;;;1.06;100.00
4085;BME280;2057;50.858;6.572;2024-02-28T02:42:48;100768.34;;;1.20;100.00
4085;BME280;2057;50.858;6.572;2024-02-28T02:45:15;100771.56;;;1.19;100.00
4085;BME280;2057;50.858;6.572;2024-02-28T02:47:41;100773.66;;;1.14;100.00
4085;BME280;2057;50.858;6.572;2024-02-28T02:50:09;100774.72;;;1.07;100.00
4085;BME280;2057;50.858;6.572;2024-02-28T02:52:34;100783.66;;;1.14;100.00
4085;BME280;2057;50.858;6.572;2024-02-28T02:55:00;100789.41;;;1.13;100.00
4085;BME280;2057;50.858;6.572;2024-02-28T02:57:25;100794.59;;;1.06;100.00
4085;BME280;2057;50.858;6.572;2024-02-28T02:59:50;100793.66;;;1.14;100.00
4085;BME280;2057;50.858;6.572;2024-02-28T03:02:18;100797.31;;;1.18;100.00
4085;BME280;2057;50.858;6.572;2024-02-28T03:04:43;100803.34;;;1.20;100.00
4085;BME280;2057;50.858;6.572;2024-02-28T03:07:09;100804.97;;;1.47;100.00
4085;BME280;2057;50.858;6.572;2024-02-28T03:09:34;100813.53;;;1.40;100.00
4085;BME280;2057;50.858;6.572;2024-02-28T03:11:59;100802.16;;;1.44;100.00
4085;BME280;2057;50.858;6.572;2024-02-28T03:14:25;100794.84;;;1.46;100.00
4085;BME280;2057;50.858;6.572;2024-02-28T03:16:52;100811.63;;;1.38;100.00
4085;BME280;2057;50.858;6.572;2024-02-28T03:19:18;100803.84;;;1.35;100.00
4085;BME280;2057;50.858;6.572;2024-02-28T03:21:43;100795.25;;;1.50;100.00
4085;BME280;2057;50.858;6.572;2024-02-28T03:24:09;100796.84;;;1.50;100.00
4085;BME280;2057;50.858;6.572;2024-02-28T03:26:34;100803.41;;;1.39;100.00
4085;BME280;2057;50.858;6.572;2024-02-28T03:28:59;100808.91;;;1.54;100.00
4085;BME280;2057;50.858;6.572;2024-02-28T03:31:26;100812.38;;;1.37;100.00
4085;BME280;2057;50.858;6.572;2024-02-28T03:33:51;100812.38;;;1.37;100.00
4085;BME280;2057;50.858;6.572;2024-02-28T03:36:17;100812.69;;;1.31;100.00
4085;BME280;2057;50.858;6.572;2024-02-28T03:38:49;100810.59;;;1.36;100.00
4085;BME280;2057;50.858;6.572;2024-02-28T03:41:15;100819.75;;;1.35;100.00
4085;BME280;2057;50.858;6.572;2024-02-28T03:43:40;100820.63;;;1.36;100.00
4085;BME280;2057;50.858;6.572;2024-02-28T03:46:08;100823.72;;;1.33;100.00
4085;BME280;2057;50.858;6.572;2024-02-28T03:48:34;100820.78;;;1.37;100.00
4085;BME280;2057;50.858;6.572;2024-02-28T03:51:00;100818.84;;;1.35;100.00
4085;BME280;2057;50.858;6.572;2024-02-28T03:53:27;100824.31;;;1.31;100.00
4085;BME280;2057;50.858;6.572;2024-02-28T03:55:53;100812.13;;;1.34;100.00
4085;BME280;2057;50.858;6.572;2024-02-28T03:58:20;100811.75;;;1.39;100.00
4085;BME280;2057;50.858;6.572;2024-02-28T04:00:45;100821.22;;;1.33;100.00
4085;BME280;2057;50.858;6.572;2024-02-28T04:03:13;100819.56;;;1.43;100.00
4085;BME280;2057;50.858;6.572;2024-02-28T04:05:39;100825.72;;;1.46;100.00
4085;BME280;2057;50.858;6.572;2024-02-28T04:08:07;100836.66;;;1.38;100.00
4085;BME280;2057;50.858;6.572;2024-02-28T04:10:32;100838.97;;;1.45;100.00
4085;BME280;2057;50.858;6.572;2024-02-28T04:12:58;100835.44;;;1.43;100.00
4085;BME280;2057;50.858;6.572;2024-02-28T04:15:27;100840.53;;;1.53;100.00
4085;BME280;2057;50.858;6.572;2024-02-28T04:17:52;100840.72;;;1.46;100.00
4085;BME280;2057;50.858;6.572;2024-02-28T04:20:18;100833.41;;;1.39;100.00
4085;BME280;2057;50.858;6.572;2024-02-28T04:22:43;100836.47;;;1.45;100.00
4085;BME280;2057;50.858;6.572;2024-02-28T04:25:09;100847.28;;;1.63;100.00
4085;BME280;2057;50.858;6.572;2024-02-28T04:27:36;100852.94;;;1.43;100.00
4085;BME280;2057;50.858;6.572;2024-02-28T04:30:05;100850.00;;;1.47;100.00
4085;BME280;2057;50.858;6.572;2024-02-28T04:32:33;100857.44;;;1.28;100.00
4085;BME280;2057;50.858;6.572;2024-02-28T04:35:01;100855.78;;;1.37;100.00
4085;BME280;2057;50.858;6.572;2024-02-28T04:37:26;100854.88;;;1.37;100.00
4085;BME280;2057;50.858;6.572;2024-02-28T04:39:51;100851.66;;;1.38;100.00
4085;BME280;2057;50.858;6.572;2024-02-28T04:42:17;100861.84;;;1.31;100.00
4085;BME280;2057;50.858;6.572;2024-02-28T04:44:42;100856.91;;;1.13;100.00
4085;BME280;2057;50.858;6.572;2024-02-28T04:47:07;100863.72;;;0.97;100.00
4085;BME280;2057;50.858;6.572;2024-02-28T04:49:36;100868.00;;;0.89;100.00
4085;BME280;2057;50.858;6.572;2024-02-28T04:52:02;100870.38;;;0.70;100.00
4085;BME280;2057;50.858;6.572;2024-02-28T04:54:29;100876.13;;;0.69;100.00
4085;BME280;2057;50.858;6.572;2024-02-28T04:56:55;100889.78;;;0.81;100.00
4085;BME280;2057;50.858;6.572;2024-02-28T04:59:20;100887.13;;;0.80;100.00
4085;BME280;2057;50.858;6.572;2024-02-28T05:01:45;100893.59;;;0.86;100.00
4085;BME280;2057;50.858;6.572;2024-02-28T05:04:13;100889.34;;;0.76;100.00
4085;BME280;2057;50.858;6.572;2024-02-28T05:06:39;100896.25;;;0.61;100.00
4085;BME280;2057;50.858;6.572;2024-02-28T05:09:04;100890.66;;;0.82;100.00
4085;BME280;2057;50.858;6.572;2024-02-28T05:11:29;100887.28;;;0.81;100.00
4085;BME280;2057;50.858;6.572;2024-02-28T05:13:55;100883.44;;;0.85;100.00
4085;BME280;2057;50.858;6.572;2024-02-28T05:16:20;100886.69;;;0.84;100.00
4085;BME280;2057;50.858;6.572;2024-02-28T05:18:46;100885.19;;;0.94;100.00
4085;BME280;2057;50.858;6.572;2024-02-28T05:21:13;100884.03;;;1.00;100.00
4085;BME280;2057;50.858;6.572;2024-02-28T05:23:42;100885.03;;;1.02;100.00
4085;BME280;2057;50.858;6.572;2024-02-28T05:26:07;100894.00;;;1.00;100.00
4085;BME280;2057;50.858;6.572;2024-02-28T05:28:33;100894.16;;;1.01;100.00
4085;BME280;2057;50.858;6.572;2024-02-28T05:33:57;100892.22;;;1.16;100.00
4085;BME280;2057;50.858;6.572;2024-02-28T05:36:25;100894.53;;;1.15;100.00
4085;BME280;2057;50.858;6.572;2024-02-28T05:38:52;100891.50;;;1.00;100.00
4085;BME280;2057;50.858;6.572;2024-02-28T05:41:17;100892.81;;;1.05;100.00
4085;BME280;2057;50.858;6.572;2024-02-28T05:43:43;100884.84;;;1.09;100.00
4085;BME280;2057;50.858;6.572;2024-02-28T05:46:12;100895.72;;;1.18;100.00
4085;BME280;2057;50.858;6.572;2024-02-28T05:48:37;100893.38;;;1.11;100.00
4085;BME280;2057;50.858;6.572;2024-02-28T05:51:03;100894.59;;;1.06;100.00
4085;BME280;2057;50.858;6.572;2024-02-28T05:53:29;100902.94;;;1.06;100.00
4085;BME280;2057;50.858;6.572;2024-02-28T05:56:01;100897.97;;;0.89;100.00
4085;BME280;2057;50.858;6.572;2024-02-28T05:58:26;100898.16;;;0.82;100.00
4085;BME280;2057;50.858;6.572;2024-02-28T06:00:56;100899.88;;;0.91;100.00
4085;BME280;2057;50.858;6.572;2024-02-28T06:03:22;100911.09;;;0.86;100.00
4085;BME280;2057;50.858;6.572;2024-02-28T06:05:47;100916.25;;;0.79;100.00
4085;BME280;2057;50.858;6.572;2024-02-28T06:08:13;100916.81;;;0.85;100.00
4085;BME280;2057;50.858;6.572;2024-02-28T06:10:41;100929.59;;;0.97;100.00
4085;BME280;2057;50.858;6.572;2024-02-28T06:13:12;100931.66;;;1.01;100.00
4085;BME280;2057;50.858;6.572;2024-02-28T06:15:37;100929.81;;;1.27;100.00
4085;BME280;2057;50.858;6.572;2024-02-28T06:18:03;100935.44;;;1.15;100.00
4085;BME280;2057;50.858;6.572;2024-02-28T06:20:31;100936.63;;;1.19;100.00
4085;BME280;2057;50.858;6.572;2024-02-28T06:22:56;100940.34;;;0.87;100.00
4085;BME280;2057;50.858;6.572;2024-02-28T06:25:24;100935.22;;;0.86;100.00
4085;BME280;2057;50.858;6.572;2024-02-28T06:27:50;100926.81;;;0.85;100.00
4085;BME280;2057;50.858;6.572;2024-02-28T06:30:18;100937.84;;;0.87;100.00
4085;BME280;2057;50.858;6.572;2024-02-28T06:32:43;100937.72;;;0.68;100.00
4085;BME280;2057;50.858;6.572;2024-02-28T06:35:11;100936.66;;;0.57;100.00
4085;BME280;2057;50.858;6.572;2024-02-28T06:37:36;100941.22;;;0.61;100.00
4085;BME280;2057;50.858;6.572;2024-02-28T06:40:05;100945.34;;;0.52;100.00
4085;BME280;2057;50.858;6.572;2024-02-28T06:42:31;100948.88;;;0.63;100.00
4085;BME280;2057;50.858;6.572;2024-02-28T06:44:59;100945.31;;;0.61;100.00
4085;BME280;2057;50.858;6.572;2024-02-28T06:47:24;100947.41;;;0.65;100.00
4085;BME280;2057;50.858;6.572;2024-02-28T06:49:52;100955.31;;;0.78;100.00
4085;BME280;2057;50.858;6.572;2024-02-28T06:52:20;100961.38;;;0.89;100.00
4085;BME280;2057;50.858;6.572;2024-02-28T06:54:45;100959.00;;;0.91;100.00
4085;BME280;2057;50.858;6.572;2024-02-28T06:57:10;100965.03;;;1.02;100.00
4085;BME280;2057;50.858;6.572;2024-02-28T06:59:36;100959.13;;;0.92;100.00
4085;BME280;2057;50.858;6.572;2024-02-28T07:02:02;100961.38;;;0.89;100.00
4085;BME280;2057;50.858;6.572;2024-02-28T07:04:27;100964.00;;;1.00;100.00
4085;BME280;2057;50.858;6.572;2024-02-28T07:06:52;100963.69;;;0.88;100.00
4085;BME280;2057;50.858;6.572;2024-02-28T07:09:21;100971.63;;;0.92;100.00
4085;BME280;2057;50.858;6.572;2024-02-28T07:11:46;100972.09;;;0.88;100.00
4085;BME280;2057;50.858;6.572;2024-02-28T07:14:11;100972.25;;;0.99;100.00
4085;BME280;2057;50.858;6.572;2024-02-28T07:16:39;100971.50;;;1.08;100.00
4085;BME280;2057;50.858;6.572;2024-02-28T07:19:04;100971.63;;;1.19;100.00
4085;BME280;2057;50.858;6.572;2024-02-28T07:21:29;100978.41;;;1.20;100.00
4085;BME280;2057;50.858;6.572;2024-02-28T07:23:57;100980.19;;;0.94;100.00
4085;BME280;2057;50.858;6.572;2024-02-28T07:26:22;100983.84;;;0.98;100.00
4085;BME280;2057;50.858;6.572;2024-02-28T07:28:47;100987.81;;;1.05;100.00
4085;BME280;2057;50.858;6.572;2024-02-28T07:31:18;100984.59;;;1.06;100.00
4085;BME280;2057;50.858;6.572;2024-02-28T07:33:44;100983.56;;;1.04;100.00
4085;BME280;2057;50.858;6.572;2024-02-28T07:36:10;100994.00;;;1.00;100.00
4085;BME280;2057;50.858;6.572;2024-02-28T07:38:38;100985.19;;;1.03;100.00
4085;BME280;2057;50.858;6.572;2024-02-28T07:41:06;100988.69;;;1.05;100.00
4085;BME280;2057;50.858;6.572;2024-02-28T07:43:33;100989.25;;;1.20;100.00
4085;BME280;2057;50.858;6.572;2024-02-28T07:46:06;100988.97;;;1.17;100.00
4085;BME280;2057;50.858;6.572;2024-02-28T07:48:36;100983.53;;;1.21;100.00
4085;BME280;2057;50.858;6.572;2024-02-28T07:51:06;100985.72;;;1.27;100.00
4085;BME280;2057;50.858;6.572;2024-02-28T07:53:32;100982.34;;;1.27;100.00
4085;BME280;2057;50.858;6.572;2024-02-28T07:55:57;100989.84;;;1.27;100.00
4085;BME280;2057;50.858;6.572;2024-02-28T07:58:23;100987.50;;;1.28;100.00
4085;BME280;2057;50.858;6.572;2024-02-28T08:00:49;100981.44;;;1.35;100.00
4085;BME280;2057;50.858;6.572;2024-02-28T08:03:15;100987.03;;;1.41;100.00
4085;BME280;2057;50.858;6.572;2024-02-28T08:05:42;100998.47;;;1.56;100.00
4085;BME280;2057;50.858;6.572;2024-02-28T08:08:09;100999.19;;;1.64;100.00
4085;BME280;2057;50.858;6.572;2024-02-28T08:10:37;100999.69;;;1.79;100.00
4085;BME280;2057;50.858;6.572;2024-02-28T08:13:02;101005.84;;;1.92;100.00
4085;BME280;2057;50.858;6.572;2024-02-28T08:15:28;100994.69;;;1.88;100.00
4085;BME280;2057;50.858;6.572;2024-02-28T08:17:54;101000.13;;;1.84;100.00
4085;BME280;2057;50.858;6.572;2024-02-28T08:20:20;101012.34;;;1.90;100.00
4085;BME280;2057;50.858;6.572;2024-02-28T08:22:45;101018.31;;;2.00;100.00
4085;BME280;2057;50.858;6.572;2024-02-28T08:25:11;101014.97;;;1.91;100.00
4085;BME280;2057;50.858;6.572;2024-02-28T08:27:37;101019.81;;;1.98;100.00
4085;BME280;2057;50.858;6.572;2024-02-28T08:30:05;101016.41;;;1.98;100.00
4085;BME280;2057;50.858;6.572;2024-02-28T08:32:33;101005.81;;;2.00;100.00
4085;BME280;2057;50.858;6.572;2024-02-28T08:34:59;101007.91;;;2.24;100.00
4085;BME280;2057;50.858;6.572;2024-02-28T08:37:25;101009.25;;;2.20;100.00
4085;BME280;2057;50.858;6.572;2024-02-28T08:39:55;101007.66;;;2.21;100.00
4085;BME280;2057;50.858;6.572;2024-02-28T08:42:26;101015.28;;;2.22;100.00
4085;BME280;2057;50.858;6.572;2024-02-28T08:44:53;101018.13;;;2.16;100.00
4085;BME280;2057;50.858;6.572;2024-02-28T08:47:22;101016.66;;;2.38;100.00
4085;BME280;2057;50.858;6.572;2024-02-28T08:49:48;101009.84;;;2.45;100.00
4085;BME280;2057;50.858;6.572;2024-02-28T08:52:13;101017.81;;;2.41;100.00
4085;BME280;2057;50.858;6.572;2024-02-28T08:54:39;101020.75;;;2.46;100.00
4085;BME280;2057;50.858;6.572;2024-02-28T08:57:04;101024.50;;;2.60;100.00
4085;BME280;2057;50.858;6.572;2024-02-28T08:59:32;101017.72;;;2.78;100.00
4085;BME280;2057;50.858;6.572;2024-02-28T09:02:02;101019.69;;;2.91;100.00
4085;BME280;2057;50.858;6.572;2024-02-28T09:04:28;101022.69;;;2.87;100.00
4085;BME280;2057;50.858;6.572;2024-02-28T09:06:53;101027.81;;;2.88;100.00
4085;BME280;2057;50.858;6.572;2024-02-28T09:09:19;101029.13;;;2.93;100.00
4085;BME280;2057;50.858;6.572;2024-02-28T09:11:44;101035.00;;;2.94;100.00
4085;BME280;2057;50.858;6.572;2024-02-28T09:14:10;101029.78;;;3.01;100.00
4085;BME280;2057;50.858;6.572;2024-02-28T09:16:37;101029.19;;;3.23;100.00
4085;BME280;2057;50.858;6.572;2024-02-28T09:19:06;101028.72;;;3.37;100.00
4085;BME280;2057;50.858;6.572;2024-02-28T09:21:31;101031.06;;;3.55;100.00
4085;BME280;2057;50.858;6.572;2024-02-28T09:23:57;101034.25;;;3.63;100.00
4085;BME280;2057;50.858;6.572;2024-02-28T09:26:22;101034.31;;;3.54;100.00
4085;BME280;2057;50.858;6.572;2024-02-28T09:28:48;101029.81;;;3.60;100.00
4085;BME280;2057;50.858;6.572;2024-02-28T09:31:13;101030.41;;;3.76;100.00
4085;BME280;2057;50.858;6.572;2024-02-28T09:33:40;101039.09;;;3.80;100.00
4085;BME280;2057;50.858;6.572;2024-02-28T09:36:06;101038.94;;;3.79;100.00
4085;BME280;2057;50.858;6.572;2024-02-28T09:38:31;101048.22;;;3.80;100.00
4085;BME280;2057;50.858;6.572;2024-02-28T09:40:58;101045.16;;;4.03;100.00
4085;BME280;2057;50.858;6.572;2024-02-28T09:43:31;101039.78;;;4.08;100.00
4085;BME280;2057;50.858;6.572;2024-02-28T09:46:03;101043.28;;;4.21;100.00
4085;BME280;2057;50.858;6.572;2024-02-28T09:48:31;101038.06;;;4.28;100.00
4085;BME280;2057;50.858;6.572;2024-02-28T09:50:57;101040.44;;;4.37;100.00
4085;BME280;2057;50.858;6.572;2024-02-28T09:53:23;101028.00;;;4.59;100.00
4085;BME280;2057;50.858;6.572;2024-02-28T09:55:50;101022.47;;;4.63;100.00
4085;BME280;2057;50.858;6.572;2024-02-28T09:58:15;101017.19;;;4.60;100.00
4085;BME280;2057;50.858;6.572;2024-02-28T10:00:41;101026.97;;;4.57;100.00
4085;BME280;2057;50.858;6.572;2024-02-28T10:03:11;101011.00;;;4.77;100.00
4085;BME280;2057;50.858;6.572;2024-02-28T10:05:40;101018.63;;;4.99;100.00
4085;BME280;2057;50.858;6.572;2024-02-28T10:08:06;101010.13;;;4.87;100.00
4085;BME280;2057;50.858;6.572;2024-02-28T10:10:31;101009.06;;;5.06;100.00
4085;BME280;2057;50.858;6.572;2024-02-28T10:12:57;101007.78;;;5.11;100.00
4085;BME280;2057;50.858;6.572;2024-02-28T10:15:26;101002.63;;;5.20;100.00
4085;BME280;2057;50.858;6.572;2024-02-28T10:17:53;101001.69;;;5.29;100.00
4085;BME280;2057;50.858;6.572;2024-02-28T10:20:19;100997.66;;;5.31;100.00
4085;BME280;2057;50.858;6.572;2024-02-28T10:22:45;101000.03;;;5.30;100.00
4085;BME280;2057;50.858;6.572;2024-02-28T10:25:10;100994.97;;;5.40;100.00
4085;BME280;2057;50.858;6.572;2024-02-28T10:27:35;101001.75;;;5.52;100.00
4085;BME280;2057;50.858;6.572;2024-02-28T10:30:02;100999.56;;;5.56;100.00
4085;BME280;2057;50.858;6.572;2024-02-28T10:32:30;101002.75;;;5.76;100.00
4085;BME280;2057;50.858;6.572;2024-02-28T10:34:57;100988.81;;;5.91;100.00
4085;BME280;2057;50.858;6.572;2024-02-28T10:37:24;101001.09;;;5.99;100.00
4085;BME280;2057;50.858;6.572;2024-02-28T10:39:51;100995.06;;;5.96;100.00
4085;BME280;2057;50.858;6.572;2024-02-28T10:42:18;100995.81;;;6.18;100.00
4085;BME280;2057;50.858;6.572;2024-02-28T10:44:44;101001.28;;;6.12;100.00
4085;BME280;2057;50.858;6.572;2024-02-28T10:47:10;101000.44;;;6.23;100.00
4085;BME280;2057;50.858;6.572;2024-02-28T10:49:36;101007.19;;;6.35;100.00
4085;BME280;2057;50.858;6.572;2024-02-28T10:52:03;101014.59;;;6.21;100.00
4085;BME280;2057;50.858;6.572;2024-02-28T10:54:29;101014.50;;;6.32;100.00
4085;BME280;2057;50.858;6.572;2024-02-28T10:56:57;101008.19;;;6.37;100.00
4085;BME280;2057;50.858;6.572;2024-02-28T11:27:48;101004.88;;;7.07;100.00
4085;BME280;2057;50.858;6.572;2024-02-28T11:30:14;100998.72;;;7.04;100.00
4085;BME280;2057;50.858;6.572;2024-02-28T11:32:40;100998.94;;;7.19;100.00
4085;BME280;2057;50.858;6.572;2024-02-28T11:35:06;100994.19;;;7.12;100.00
4085;BME280;2057;50.858;6.572;2024-02-28T11:37:31;100994.00;;;7.20;100.00
4085;BME280;2057;50.858;6.572;2024-02-28T11:39:57;100987.19;;;7.07;100.00
4085;BME280;2057;50.858;6.572;2024-02-28T11:42:26;100988.38;;;7.36;100.00
4085;BME280;2057;50.858;6.572;2024-02-28T11:44:55;100983.94;;;7.46;100.00
4085;BME280;2057;50.858;6.572;2024-02-28T11:47:22;100980.13;;;7.39;100.00
4085;BME280;2057;50.858;6.572;2024-02-28T11:49:48;100980.88;;;7.50;100.00
4085;BME280;2057;50.858;6.572;2024-02-28T11:52:14;100976.41;;;7.71;100.00
4085;BME280;2057;50.858;6.572;2024-02-28T11:54:39;100970.34;;;7.44;100.00
4085;BME280;2057;50.858;6.572;2024-02-28T11:57:05;100971.59;;;7.74;100.00
4085;BME280;2057;50.858;6.572;2024-02-28T11:59:34;100960.13;;;7.79;100.00
4085;BME280;2057;50.858;6.572;2024-02-28T12:02:00;100955.06;;;7.79;100.00
4085;BME280;2057;50.858;6.572;2024-02-28T12:04:25;100951.22;;;7.84;100.00
4085;BME280;2057;50.858;6.572;2024-02-28T12:06:50;100949.09;;;7.91;100.00
4085;BME280;2057;50.858;6.572;2024-02-28T12:09:16;100941.44;;;8.03;100.00
4085;BME280;2057;50.858;6.572;2024-02-28T12:11:46;100937.16;;;8.01;100.00
4085;BME280;2057;50.858;6.572;2024-02-28T12:14:12;100935.69;;;7.92;100.00
4085;BME280;2057;50.858;6.572;2024-02-28T12:16:40;100939.78;;;8.03;100.00
4085;BME280;2057;50.858;6.572;2024-02-28T12:19:11;100933.03;;;8.29;100.00
4085;BME280;2057;50.858;6.572;2024-02-28T12:21:38;100931.66;;;8.21;100.00
4085;BME280;2057;50.858;6.572;2024-02-28T12:24:08;100932.84;;;8.26;100.00
4085;BME280;2057;50.858;6.572;2024-02-28T12:26:40;100925.16;;;8.24;100.00
4085;BME280;2057;50.858;6.572;2024-02-28T12:29:06;100920.34;;;8.41;100.00
4085;BME280;2057;50.858;6.572;2024-02-28T12:31:32;100912.09;;;8.57;100.00
4085;BME280;2057;50.858;6.572;2024-02-28T12:33:57;100915.00;;;8.63;100.00
4085;BME280;2057;50.858;6.572;2024-02-28T12:36:22;100905.47;;;8.72;100.00
4085;BME280;2057;50.858;6.572;2024-02-28T12:38:48;100906.94;;;8.69;100.00
4085;BME280;2057;50.858;6.572;2024-02-28T12:41:13;100907.03;;;8.97;100.00
4085;BME280;2057;50.858;6.572;2024-02-28T12:43:39;100903.09;;;9.02;98.47
4085;BME280;2057;50.858;6.572;2024-02-28T12:46:05;100902.53;;;8.93;95.69
4085;BME280;2057;50.858;6.572;2024-02-28T12:48:37;100894.75;;;8.76;95.14
4085;BME280;2057;50.858;6.572;2024-02-28T12:51:05;100897.66;;;8.96;94.98
4085;BME280;2057;50.858;6.572;2024-02-28T12:53:31;100894.31;;;9.10;93.55
4085;BME280;2057;50.858;6.572;2024-02-28T12:55:56;100890.47;;;9.31;92.60
4085;BME280;2057;50.858;6.572;2024-02-28T12:58:22;100889.13;;;9.22;92.45
4085;BME280;2057;50.858;6.572;2024-02-28T13:00:48;100893.63;;;9.13;91.08
4085;BME280;2057;50.858;6.572;2024-02-28T13:03:14;100889.63;;;9.17;92.17
4085;BME280;2057;50.858;6.572;2024-02-28T13:05:40;100880.69;;;9.08;92.41
4085;BME280;2057;50.858;6.572;2024-02-28T13:08:05;100877.28;;;8.94;91.65
4085;BME280;2057;50.858;6.572;2024-02-28T13:10:31;100883.34;;;9.10;92.00
4085;BME280;2057;50.858;6.572;2024-02-28T13:12:59;100881.44;;;9.21;92.99
4085;BME280;2057;50.858;6.572;2024-02-28T13:15:27;100871.53;;;9.39;93.60
4085;BME280;2057;50.858;6.572;2024-02-28T13:17:52;100875.75;;;9.38;91.41
4085;BME280;2057;50.858;6.572;2024-02-28T13:20:18;100884.13;;;9.37;91.41
4085;BME280;2057;50.858;6.572;2024-02-28T13:25:17;100873.56;;;9.45;90.35
4085;BME280;2057;50.858;6.572;2024-02-28T13:27:45;100871.22;;;9.48;89.60
4085;BME280;2057;50.858;6.572;2024-02-28T13:30:11;100870.72;;;9.53;89.95
4085;BME280;2057;50.858;6.572;2024-02-28T13:32:38;100872.44;;;9.26;89.63
4085;BME280;2057;50.858;6.572;2024-02-28T13:35:03;100864.06;;;9.27;89.26
4085;BME280;2057;50.858;6.572;2024-02-28T13:37:29;100871.88;;;9.17;88.95
4085;BME280;2057;50.858;6.572;2024-02-28T13:39:54;100859.38;;;9.33;90.57
4085;BME280;2057;50.858;6.572;2024-02-28T13:42:22;100858.44;;;9.46;91.11
4085;BME280;2057;50.858;6.572;2024-02-28T13:44:51;100860.59;;;9.53;90.58
4085;BME280;2057;50.858;6.572;2024-02-28T13:47:17;100857.69;;;9.62;90.46
4085;BME280;2057;50.858;6.572;2024-02-28T13:49:42;100847.25;;;9.71;89.60
4085;BME280;2057;50.858;6.572;2024-02-28T13:52:07;100851.31;;;9.54;88.64
4085;BME280;2057;50.858;6.572;2024-02-28T13:54:33;100848.81;;;9.69;88.94